Ana Sayfa
METAR-TAF:

METAR-TAF

Havaalanları :

Rarotonga, Cook Adaları

Enlem: 21-12S, Boylam: 159-49W, yükseklik: 7 m

Güncel hava durumu gözlemi

Rapor saat 03:00 UTC de 33 dakika önce yapıldı.
Rüzgar doğudan 9 kt
Sıcaklık 24°C
Nem 61%
Basınç 1013 hPa
Görüş mesafesi 10 km veya daha fazla
2300 ft yükseklikte az bulutlu
9000 ft yükseklikte parçalı çok bulutlu

METAR: NCRG 230300Z 10009KT 9999 FEW023 BKN090 24/16 Q1013

Saat: 17:33 (03:33 UTC)

Tahmin

Rapor saat 23:05 UTC de 4 saat ve 28 dakika önce yapıldı.
Ayın 23'si saat 00 UTC'den ayın 23'si saat 24 UTC'ye kadar geçerli Tahmin
Rüzgar doğudan 10 kt
Görüş mesafesi 10 km veya daha fazla
2000 ft yükseklikte parçalı bulutlu
10000 ft yükseklikte parçalı çok bulutlu

TAF: NCRG 222305Z 2300/2324 10010KT 9999 SCT020 BKN100

4.000'den fazla havaalanı için hava durumu gözlemleri ve tahminleri (METAR ve TAF raporları).

Kullanılabilir istasyonlar harita üzerinde sarı ve kırmızı noktalarla gösterilir.

İstasyonun adını görmek için fareyi noktanın üzerinde gezdirin.

Sonrasında hava gözlem ve tahminlerini görmek için tıklayın.

Haritayı değiştirmek için: yaklaştırmak için siyah artı işaretli yeşil düğmeye ve uzaklaştırmak için de eksi işaretli düğmeye hızla tıklayın; bitişik haritalar için yeşil okları kullanın.


METAR-TAF: